sensor_id;sensor_type;location;lat;lon;timestamp;pressure;altitude;pressure_sealevel;temperature;humidity
11444;BME280;5778;47.856;12.154;2022-10-16T00:01:58;96402.31;;;12.95;100.00
11444;BME280;5778;47.856;12.154;2022-10-16T00:04:26;96406.03;;;12.94;100.00
11444;BME280;5778;47.856;12.154;2022-10-16T00:07:00;96402.31;;;12.95;100.00
11444;BME280;5778;47.856;12.154;2022-10-16T00:09:28;96407.63;;;12.90;100.00
11444;BME280;5778;47.856;12.154;2022-10-16T00:11:54;96408.97;;;12.77;100.00
11444;BME280;5778;47.856;12.154;2022-10-16T00:14:21;96412.38;;;12.68;100.00
11444;BME280;5778;47.856;12.154;2022-10-16T00:16:48;96412.34;;;12.58;100.00
11444;BME280;5778;47.856;12.154;2022-10-16T00:19:15;96416.34;;;12.60;100.00
11444;BME280;5778;47.856;12.154;2022-10-16T00:21:44;96423.28;;;12.56;100.00
11444;BME280;5778;47.856;12.154;2022-10-16T00:24:11;96423.50;;;12.45;100.00
11444;BME280;5778;47.856;12.154;2022-10-16T00:26:51;96424.31;;;12.45;100.00
11444;BME280;5778;47.856;12.154;2022-10-16T00:29:18;96425.38;;;12.39;100.00
11444;BME280;5778;47.856;12.154;2022-10-16T00:31:45;96417.91;;;12.41;100.00
11444;BME280;5778;47.856;12.154;2022-10-16T00:34:12;96424.56;;;12.39;100.00
11444;BME280;5778;47.856;12.154;2022-10-16T00:36:40;96418.97;;;12.40;100.00
11444;BME280;5778;47.856;12.154;2022-10-16T00:39:08;96421.09;;;12.43;100.00
11444;BME280;5778;47.856;12.154;2022-10-16T00:41:35;96418.66;;;12.32;100.00
11444;BME280;5778;47.856;12.154;2022-10-16T00:44:40;96429.34;;;12.32;100.00
11444;BME280;5778;47.856;12.154;2022-10-16T00:46:52;96433.50;;;12.18;100.00
11444;BME280;5778;47.856;12.154;2022-10-16T00:49:20;96434.56;;;12.12;100.00
11444;BME280;5778;47.856;12.154;2022-10-16T00:52:05;96440.88;;;12.01;100.00
11444;BME280;5778;47.856;12.154;2022-10-16T00:54:33;96433.19;;;12.04;100.00
11444;BME280;5778;47.856;12.154;2022-10-16T00:57:04;96441.94;;;12.00;100.00
11444;BME280;5778;47.856;12.154;2022-10-16T00:59:34;96435.63;;;12.11;100.00
11444;BME280;5778;47.856;12.154;2022-10-16T01:02:04;96440.91;;;12.06;100.00
11444;BME280;5778;47.856;12.154;2022-10-16T01:04:34;96447.03;;;12.01;100.00
11444;BME280;5778;47.856;12.154;2022-10-16T01:07:06;96445.09;;;11.92;100.00
11444;BME280;5778;47.856;12.154;2022-10-16T01:09:43;96437.94;;;11.97;100.00
11444;BME280;5778;47.856;12.154;2022-10-16T01:12:16;96433.94;;;11.95;100.00
11444;BME280;5778;47.856;12.154;2022-10-16T01:14:48;96436.06;;;11.98;100.00
11444;BME280;5778;47.856;12.154;2022-10-16T01:17:33;96444.38;;;12.01;100.00
11444;BME280;5778;47.856;12.154;2022-10-16T01:20:11;96438.41;;;11.89;100.00
11444;BME280;5778;47.856;12.154;2022-10-16T01:22:55;96434.19;;;11.93;100.00
11444;BME280;5778;47.856;12.154;2022-10-16T01:25:36;96447.25;;;11.95;100.00
11444;BME280;5778;47.856;12.154;2022-10-16T01:28:07;96439.78;;;11.97;100.00
11444;BME280;5778;47.856;12.154;2022-10-16T01:30:38;96441.38;;;11.98;100.00
11444;BME280;5778;47.856;12.154;2022-10-16T01:33:11;96437.06;;;11.87;100.00
11444;BME280;5778;47.856;12.154;2022-10-16T01:35:44;96435.69;;;11.84;100.00
11444;BME280;5778;47.856;12.154;2022-10-16T01:38:17;96429.06;;;11.82;100.00
11444;BME280;5778;47.856;12.154;2022-10-16T01:40:49;96438.91;;;11.81;100.00
11444;BME280;5778;47.856;12.154;2022-10-16T01:43:22;96440.72;;;11.76;100.00
11444;BME280;5778;47.856;12.154;2022-10-16T01:46:06;96443.34;;;11.71;100.00
11444;BME280;5778;47.856;12.154;2022-10-16T01:48:36;96435.06;;;11.67;100.00
11444;BME280;5778;47.856;12.154;2022-10-16T01:54:13;96443.34;;;11.66;100.00
11444;BME280;5778;47.856;12.154;2022-10-16T01:56:43;96442.47;;;11.60;100.00
11444;BME280;5778;47.856;12.154;2022-10-16T01:59:14;96444.88;;;11.62;100.00
11444;BME280;5778;47.856;12.154;2022-10-16T02:01:45;96441.66;;;11.60;100.00
11444;BME280;5778;47.856;12.154;2022-10-16T02:04:16;96443.28;;;11.61;100.00
11444;BME280;5778;47.856;12.154;2022-10-16T02:06:44;96449.69;;;11.65;100.00
11444;BME280;5778;47.856;12.154;2022-10-16T02:09:11;96448.38;;;11.67;100.00
11444;BME280;5778;47.856;12.154;2022-10-16T02:11:38;96449.19;;;11.68;100.00
11444;BME280;5778;47.856;12.154;2022-10-16T02:14:06;96457.97;;;11.63;100.00
11444;BME280;5778;47.856;12.154;2022-10-16T02:16:38;96463.00;;;11.65;100.00
11444;BME280;5778;47.856;12.154;2022-10-16T02:19:06;96463.00;;;11.65;100.00
11444;BME280;5778;47.856;12.154;2022-10-16T02:22:00;96462.47;;;11.63;100.00
11444;BME280;5778;47.856;12.154;2022-10-16T02:24:33;96458.22;;;11.62;100.00
11444;BME280;5778;47.856;12.154;2022-10-16T02:27:06;96462.47;;;11.63;100.00
11444;BME280;5778;47.856;12.154;2022-10-16T02:29:40;96462.97;;;11.60;100.00
11444;BME280;5778;47.856;12.154;2022-10-16T02:32:15;96459.44;;;11.54;100.00
11444;BME280;5778;47.856;12.154;2022-10-16T02:34:44;96457.84;;;11.53;100.00
11444;BME280;5778;47.856;12.154;2022-10-16T02:37:26;96465.44;;;11.40;100.00
11444;BME280;5778;47.856;12.154;2022-10-16T02:39:54;96461.78;;;11.46;100.00
11444;BME280;5778;47.856;12.154;2022-10-16T02:42:27;96455.34;;;11.42;100.00
11444;BME280;5778;47.856;12.154;2022-10-16T02:44:55;96463.91;;;11.44;100.00
11444;BME280;5778;47.856;12.154;2022-10-16T02:47:24;96464.19;;;11.47;100.00
11444;BME280;5778;47.856;12.154;2022-10-16T02:49:51;96458.00;;;11.42;100.00
11444;BME280;5778;47.856;12.154;2022-10-16T02:52:50;96455.63;;;11.45;100.00
11444;BME280;5778;47.856;12.154;2022-10-16T02:55:17;96463.03;;;11.38;100.00
11444;BME280;5778;47.856;12.154;2022-10-16T02:58:13;96452.38;;;11.38;100.00
11444;BME280;5778;47.856;12.154;2022-10-16T03:00:41;96462.44;;;11.31;100.00
11444;BME280;5778;47.856;12.154;2022-10-16T03:03:10;96465.69;;;11.38;100.00
11444;BME280;5778;47.856;12.154;2022-10-16T03:05:37;96468.13;;;11.40;100.00
11444;BME280;5778;47.856;12.154;2022-10-16T03:08:04;96471.25;;;11.37;100.00
11444;BME280;5778;47.856;12.154;2022-10-16T03:10:31;96467.81;;;11.36;100.00
11444;BME280;5778;47.856;12.154;2022-10-16T03:12:58;96472.38;;;11.41;100.00
11444;BME280;5778;47.856;12.154;2022-10-16T03:15:25;96476.06;;;11.35;100.00
11444;BME280;5778;47.856;12.154;2022-10-16T03:21:16;96477.16;;;11.39;100.00
11444;BME280;5778;47.856;12.154;2022-10-16T03:23:43;96482.22;;;11.40;100.00
11444;BME280;5778;47.856;12.154;2022-10-16T03:26:12;96486.19;;;11.38;100.00
11444;BME280;5778;47.856;12.154;2022-10-16T03:28:39;96479.78;;;11.34;100.00
11444;BME280;5778;47.856;12.154;2022-10-16T03:31:06;96480.31;;;11.36;100.00
11444;BME280;5778;47.856;12.154;2022-10-16T03:33:33;96483.78;;;11.36;100.00
11444;BME280;5778;47.856;12.154;2022-10-16T03:36:06;96481.38;;;11.35;100.00
11444;BME280;5778;47.856;12.154;2022-10-16T03:38:35;96478.41;;;11.31;100.00
11444;BME280;5778;47.856;12.154;2022-10-16T03:41:02;96481.56;;;11.28;100.00
11444;BME280;5778;47.856;12.154;2022-10-16T03:43:29;96476.78;;;11.25;100.00
11444;BME280;5778;47.856;12.154;2022-10-16T03:46:13;96475.97;;;11.25;100.00
11444;BME280;5778;47.856;12.154;2022-10-16T03:48:40;96473.25;;;11.20;100.00
11444;BME280;5778;47.856;12.154;2022-10-16T03:51:07;96466.03;;;11.15;100.00
11444;BME280;5778;47.856;12.154;2022-10-16T03:53:35;96470.47;;;11.10;100.00
11444;BME280;5778;47.856;12.154;2022-10-16T03:56:03;96466.47;;;11.07;100.00
11444;BME280;5778;47.856;12.154;2022-10-16T03:58:29;96472.41;;;11.14;100.00
11444;BME280;5778;47.856;12.154;2022-10-16T04:00:57;96472.94;;;11.16;100.00
11444;BME280;5778;47.856;12.154;2022-10-16T04:03:24;96477.97;;;11.13;100.00
11444;BME280;5778;47.856;12.154;2022-10-16T04:06:05;96483.47;;;11.06;100.00
11444;BME280;5778;47.856;12.154;2022-10-16T04:08:32;96480.41;;;10.93;100.00
11444;BME280;5778;47.856;12.154;2022-10-16T04:11:03;96485.03;;;11.02;100.00
11444;BME280;5778;47.856;12.154;2022-10-16T04:13:30;96490.63;;;11.01;100.00
11444;BME280;5778;47.856;12.154;2022-10-16T04:15:57;96481.81;;;11.00;100.00
11444;BME280;5778;47.856;12.154;2022-10-16T04:18:24;96483.06;;;10.93;100.00
11444;BME280;5778;47.856;12.154;2022-10-16T04:20:52;96482.13;;;11.04;100.00
11444;BME280;5778;47.856;12.154;2022-10-16T04:23:19;96480.34;;;11.09;100.00
11444;BME280;5778;47.856;12.154;2022-10-16T04:25:46;96482.69;;;11.06;100.00
11444;BME280;5778;47.856;12.154;2022-10-16T04:28:15;96482.66;;;11.01;100.00
11444;BME280;5778;47.856;12.154;2022-10-16T04:30:42;96481.78;;;10.95;100.00
11444;BME280;5778;47.856;12.154;2022-10-16T04:33:09;96496.84;;;10.85;100.00
11444;BME280;5778;47.856;12.154;2022-10-16T04:35:36;96496.53;;;10.81;100.00
11444;BME280;5778;47.856;12.154;2022-10-16T04:38:03;96502.16;;;10.85;100.00
11444;BME280;5778;47.856;12.154;2022-10-16T04:40:30;96502.09;;;10.80;100.00
11444;BME280;5778;47.856;12.154;2022-10-16T04:43:01;96509.06;;;10.86;100.00
11444;BME280;5778;47.856;12.154;2022-10-16T04:45:30;96513.88;;;10.89;100.00
11444;BME280;5778;47.856;12.154;2022-10-16T04:47:57;96506.47;;;10.91;100.00
11444;BME280;5778;47.856;12.154;2022-10-16T04:53:48;96505.47;;;10.97;100.00
11444;BME280;5778;47.856;12.154;2022-10-16T04:56:34;96506.78;;;10.94;100.00
11444;BME280;5778;47.856;12.154;2022-10-16T04:59:05;96505.66;;;10.90;100.00
11444;BME280;5778;47.856;12.154;2022-10-16T05:01:34;96507.72;;;10.83;100.00
11444;BME280;5778;47.856;12.154;2022-10-16T05:04:01;96501.53;;;10.78;100.00
11444;BME280;5778;47.856;12.154;2022-10-16T05:06:38;96498.06;;;10.77;100.00
11444;BME280;5778;47.856;12.154;2022-10-16T05:09:05;96493.53;;;10.78;100.00
11444;BME280;5778;47.856;12.154;2022-10-16T05:11:32;96495.72;;;10.81;100.00
11444;BME280;5778;47.856;12.154;2022-10-16T05:13:59;96505.31;;;10.82;100.00
11444;BME280;5778;47.856;12.154;2022-10-16T05:17:02;96495.13;;;10.74;100.00
11444;BME280;5778;47.856;12.154;2022-10-16T05:19:29;96493.19;;;10.69;100.00
11444;BME280;5778;47.856;12.154;2022-10-16T05:21:56;96505.94;;;10.67;100.00
11444;BME280;5778;47.856;12.154;2022-10-16T05:24:23;96504.31;;;10.66;100.00
11444;BME280;5778;47.856;12.154;2022-10-16T05:27:06;96489.09;;;10.62;100.00
11444;BME280;5778;47.856;12.154;2022-10-16T05:29:33;96503.72;;;10.59;100.00
11444;BME280;5778;47.856;12.154;2022-10-16T05:32:02;96500.25;;;10.59;100.00
11444;BME280;5778;47.856;12.154;2022-10-16T05:34:29;96499.72;;;10.62;100.00
11444;BME280;5778;47.856;12.154;2022-10-16T05:37:02;96498.13;;;10.61;100.00
11444;BME280;5778;47.856;12.154;2022-10-16T05:39:29;96501.09;;;10.64;100.00
11444;BME280;5778;47.856;12.154;2022-10-16T05:41:56;96499.84;;;10.72;100.00
11444;BME280;5778;47.856;12.154;2022-10-16T05:44:23;96497.25;;;10.77;100.00
11444;BME280;5778;47.856;12.154;2022-10-16T05:46:51;96496.25;;;10.83;100.00
11444;BME280;5778;47.856;12.154;2022-10-16T05:49:20;96497.44;;;10.92;100.00
11444;BME280;5778;47.856;12.154;2022-10-16T05:52:12;96496.72;;;11.01;100.00
11444;BME280;5778;47.856;12.154;2022-10-16T05:54:40;96508.44;;;11.00;100.00
11444;BME280;5778;47.856;12.154;2022-10-16T05:57:10;96506.13;;;11.09;100.00
11444;BME280;5778;47.856;12.154;2022-10-16T05:59:37;96506.25;;;11.19;100.00
11444;BME280;5778;47.856;12.154;2022-10-16T06:02:04;96494.59;;;11.25;100.00
11444;BME280;5778;47.856;12.154;2022-10-16T06:04:32;96499.47;;;11.33;100.00
11444;BME280;5778;47.856;12.154;2022-10-16T06:07:04;96506.69;;;11.37;100.00
11444;BME280;5778;47.856;12.154;2022-10-16T06:09:32;96516.81;;;11.40;100.00
11444;BME280;5778;47.856;12.154;2022-10-16T06:11:59;96519.25;;;11.42;100.00
11444;BME280;5778;47.856;12.154;2022-10-16T06:14:25;96514.84;;;11.52;100.00
11444;BME280;5778;47.856;12.154;2022-10-16T06:17:08;96530.72;;;11.69;100.00
11444;BME280;5778;47.856;12.154;2022-10-16T06:19:37;96520.72;;;11.86;100.00
11444;BME280;5778;47.856;12.154;2022-10-16T06:22:07;96516.00;;;11.98;100.00
11444;BME280;5778;47.856;12.154;2022-10-16T06:24:34;96530.28;;;12.13;100.00
11444;BME280;5778;47.856;12.154;2022-10-16T06:27:07;96530.59;;;12.22;100.00
11444;BME280;5778;47.856;12.154;2022-10-16T06:29:34;96536.22;;;12.25;100.00
11444;BME280;5778;47.856;12.154;2022-10-16T06:34:28;96540.84;;;12.40;100.00
11444;BME280;5778;47.856;12.154;2022-10-16T06:37:05;96539.28;;;12.49;100.00
11444;BME280;5778;47.856;12.154;2022-10-16T06:39:32;96539.81;;;12.51;100.00
11444;BME280;5778;47.856;12.154;2022-10-16T06:41:58;96553.41;;;12.49;100.00
11444;BME280;5778;47.856;12.154;2022-10-16T06:44:32;96554.03;;;12.61;100.00
11444;BME280;5778;47.856;12.154;2022-10-16T06:47:05;96552.47;;;12.70;100.00
11444;BME280;5778;47.856;12.154;2022-10-16T06:49:33;96554.41;;;12.80;100.00
11444;BME280;5778;47.856;12.154;2022-10-16T06:55:24;96556.41;;;13.09;100.00
11444;BME280;5778;47.856;12.154;2022-10-16T07:01:15;96576.19;;;13.13;100.00
11444;BME280;5778;47.856;12.154;2022-10-16T07:03:44;96570.09;;;13.33;100.00
11444;BME280;5778;47.856;12.154;2022-10-16T07:06:24;96581.38;;;13.55;100.00
11444;BME280;5778;47.856;12.154;2022-10-16T07:08:51;96568.56;;;13.67;100.00
11444;BME280;5778;47.856;12.154;2022-10-16T07:11:22;96568.59;;;13.87;100.00
11444;BME280;5778;47.856;12.154;2022-10-16T07:13:51;96572.91;;;13.98;100.00
11444;BME280;5778;47.856;12.154;2022-10-16T07:16:20;96583.84;;;14.06;100.00
11444;BME280;5778;47.856;12.154;2022-10-16T07:18:48;96583.59;;;14.13;100.00
11444;BME280;5778;47.856;12.154;2022-10-16T07:21:34;96581.22;;;14.26;100.00
11444;BME280;5778;47.856;12.154;2022-10-16T07:24:03;96582.56;;;14.34;100.00
11444;BME280;5778;47.856;12.154;2022-10-16T07:29:54;96587.84;;;14.64;100.00
11444;BME280;5778;47.856;12.154;2022-10-16T07:32:21;96596.38;;;14.76;100.00
11444;BME280;5778;47.856;12.154;2022-10-16T07:34:51;96597.47;;;14.80;100.00
11444;BME280;5778;47.856;12.154;2022-10-16T07:37:19;96605.72;;;14.98;100.00
11444;BME280;5778;47.856;12.154;2022-10-16T07:39:46;96594.75;;;14.95;100.00
11444;BME280;5778;47.856;12.154;2022-10-16T07:42:13;96601.66;;;15.11;100.00
11444;BME280;5778;47.856;12.154;2022-10-16T07:44:41;96597.28;;;15.30;100.00
11444;BME280;5778;47.856;12.154;2022-10-16T07:47:10;96598.34;;;15.44;100.00
11444;BME280;5778;47.856;12.154;2022-10-16T07:49:38;96605.22;;;15.65;100.00
11444;BME280;5778;47.856;12.154;2022-10-16T07:52:05;96604.06;;;15.76;100.00
11444;BME280;5778;47.856;12.154;2022-10-16T07:54:32;96599.53;;;15.71;100.00
11444;BME280;5778;47.856;12.154;2022-10-16T07:57:05;96601.81;;;15.93;100.00
11444;BME280;5778;47.856;12.154;2022-10-16T07:59:32;96612.97;;;16.10;100.00
11444;BME280;5778;47.856;12.154;2022-10-16T08:01:58;96608.06;;;16.17;100.00
11444;BME280;5778;47.856;12.154;2022-10-16T08:04:27;96615.16;;;16.36;100.00
11444;BME280;5778;47.856;12.154;2022-10-16T08:07:03;96612.78;;;16.40;100.00
11444;BME280;5778;47.856;12.154;2022-10-16T08:09:31;96605.69;;;16.49;100.00
11444;BME280;5778;47.856;12.154;2022-10-16T08:11:58;96602.88;;;16.64;100.00
11444;BME280;5778;47.856;12.154;2022-10-16T08:14:26;96602.25;;;16.43;100.00
11444;BME280;5778;47.856;12.154;2022-10-16T08:23:39;96593.25;;;17.33;100.00
11444;BME280;5778;47.856;12.154;2022-10-16T08:26:13;96606.47;;;17.53;100.00
11444;BME280;5778;47.856;12.154;2022-10-16T08:28:40;96607.00;;;17.74;100.00
11444;BME280;5778;47.856;12.154;2022-10-16T08:31:09;96610.66;;;17.83;100.00
11444;BME280;5778;47.856;12.154;2022-10-16T08:33:37;96608.19;;;18.05;100.00
11444;BME280;5778;47.856;12.154;2022-10-16T08:36:11;96609.13;;;18.14;100.00
11444;BME280;5778;47.856;12.154;2022-10-16T08:38:40;96613.75;;;18.27;100.00
11444;BME280;5778;47.856;12.154;2022-10-16T08:41:22;96617.56;;;18.07;100.00
11444;BME280;5778;47.856;12.154;2022-10-16T08:44:15;96622.13;;;18.07;100.00
11444;BME280;5778;47.856;12.154;2022-10-16T08:47:02;96616.59;;;18.17;100.00
11444;BME280;5778;47.856;12.154;2022-10-16T08:49:32;96617.75;;;18.29;100.00
11444;BME280;5778;47.856;12.154;2022-10-16T08:52:10;96619.56;;;18.52;100.00
11444;BME280;5778;47.856;12.154;2022-10-16T08:54:42;96630.38;;;18.66;100.00
11444;BME280;5778;47.856;12.154;2022-10-16T08:57:14;96635.84;;;18.93;100.00
11444;BME280;5778;47.856;12.154;2022-10-16T08:59:42;96633.41;;;18.78;100.00
11444;BME280;5778;47.856;12.154;2022-10-16T09:02:24;96632.69;;;19.18;100.00
11444;BME280;5778;47.856;12.154;2022-10-16T09:04:58;96624.41;;;19.55;100.00
11444;BME280;5778;47.856;12.154;2022-10-16T09:08:00;96630.31;;;19.57;100.00
11444;BME280;5778;47.856;12.154;2022-10-16T09:10:38;96631.69;;;19.81;100.00
11444;BME280;5778;47.856;12.154;2022-10-16T09:13:17;96636.84;;;20.05;100.00
11444;BME280;5778;47.856;12.154;2022-10-16T09:15:52;96631.22;;;20.15;100.00
11444;BME280;5778;47.856;12.154;2022-10-16T09:18:25;96631.66;;;20.08;100.00
11444;BME280;5778;47.856;12.154;2022-10-16T09:21:18;96638.47;;;19.92;100.00
11444;BME280;5778;47.856;12.154;2022-10-16T09:23:46;96642.19;;;20.32;100.00
11444;BME280;5778;47.856;12.154;2022-10-16T09:26:18;96642.56;;;20.61;100.00
11444;BME280;5778;47.856;12.154;2022-10-16T09:28:47;96644.28;;;20.79;100.00
11444;BME280;5778;47.856;12.154;2022-10-16T09:31:17;96640.25;;;20.90;100.00
11444;BME280;5778;47.856;12.154;2022-10-16T09:33:48;96645.88;;;21.02;100.00
11444;BME280;5778;47.856;12.154;2022-10-16T09:39:09;96646.25;;;20.87;100.00
11444;BME280;5778;47.856;12.154;2022-10-16T09:41:40;96651.88;;;20.90;100.00
11444;BME280;5778;47.856;12.154;2022-10-16T09:44:18;96644.94;;;21.37;100.00
11444;BME280;5778;47.856;12.154;2022-10-16T09:47:01;96653.72;;;21.51;100.00
11444;BME280;5778;47.856;12.154;2022-10-16T09:49:28;96650.38;;;21.76;100.00
11444;BME280;5778;47.856;12.154;2022-10-16T09:52:14;96655.34;;;21.21;100.00
11444;BME280;5778;47.856;12.154;2022-10-16T09:54:49;96656.09;;;21.83;100.00
11444;BME280;5778;47.856;12.154;2022-10-16T09:57:22;96653.53;;;21.69;100.00
11444;BME280;5778;47.856;12.154;2022-10-16T09:59:51;96659.75;;;21.78;100.00
11444;BME280;5778;47.856;12.154;2022-10-16T10:02:29;96662.09;;;21.63;100.00
11444;BME280;5778;47.856;12.154;2022-10-16T10:04:57;96662.63;;;21.73;100.00
11444;BME280;5778;47.856;12.154;2022-10-16T10:07:39;96664.88;;;21.88;100.00
11444;BME280;5778;47.856;12.154;2022-10-16T10:10:20;96664.72;;;21.85;100.00
11444;BME280;5778;47.856;12.154;2022-10-16T10:12:50;96657.06;;;21.87;100.00
11444;BME280;5778;47.856;12.154;2022-10-16T10:15:17;96663.66;;;22.11;100.00
11444;BME280;5778;47.856;12.154;2022-10-16T10:17:53;96654.81;;;22.45;100.00
11444;BME280;5778;47.856;12.154;2022-10-16T10:23:43;96646.94;;;22.35;100.00
11444;BME280;5778;47.856;12.154;2022-10-16T10:26:26;96651.84;;;22.07;100.00
11444;BME280;5778;47.856;12.154;2022-10-16T10:29:03;96641.03;;;22.16;100.00
11444;BME280;5778;47.856;12.154;2022-10-16T10:31:39;96640.72;;;22.43;100.00
11444;BME280;5778;47.856;12.154;2022-10-16T10:34:23;96635.81;;;22.36;100.00
11444;BME280;5778;47.856;12.154;2022-10-16T10:40:28;96654.13;;;22.65;100.00
11444;BME280;5778;47.856;12.154;2022-10-16T10:42:59;96638.78;;;22.94;100.00
11444;BME280;5778;47.856;12.154;2022-10-16T10:45:39;96642.75;;;23.60;100.00
11444;BME280;5778;47.856;12.154;2022-10-16T10:48:45;96638.41;;;23.67;100.00
11444;BME280;5778;47.856;12.154;2022-10-16T10:51:42;96636.59;;;23.42;100.00
11444;BME280;5778;47.856;12.154;2022-10-16T10:54:15;96634.19;;;23.78;100.00
11444;BME280;5778;47.856;12.154;2022-10-16T10:56:52;96646.75;;;23.91;100.00
11444;BME280;5778;47.856;12.154;2022-10-16T10:59:54;96637.44;;;23.34;100.00
11444;BME280;5778;47.856;12.154;2022-10-16T11:02:34;96644.03;;;23.62;100.00
11444;BME280;5778;47.856;12.154;2022-10-16T11:05:23;96646.44;;;23.93;100.00
11444;BME280;5778;47.856;12.154;2022-10-16T11:07:57;96645.31;;;23.85;100.00
11444;BME280;5778;47.856;12.154;2022-10-16T11:10:27;96640.06;;;23.89;100.00
11444;BME280;5778;47.856;12.154;2022-10-16T11:12:59;96635.69;;;24.46;100.00
11444;BME280;5778;47.856;12.154;2022-10-16T11:15:34;96631.94;;;24.71;100.00
11444;BME280;5778;47.856;12.154;2022-10-16T11:18:06;96625.50;;;24.55;100.00
11444;BME280;5778;47.856;12.154;2022-10-16T11:20:40;96625.16;;;24.77;100.00
11444;BME280;5778;47.856;12.154;2022-10-16T11:23:15;96624.00;;;24.45;100.00
11444;BME280;5778;47.856;12.154;2022-10-16T11:25:51;96623.63;;;24.88;100.00
11444;BME280;5778;47.856;12.154;2022-10-16T11:28:23;96622.28;;;25.26;100.00
11444;BME280;5778;47.856;12.154;2022-10-16T11:30:53;96619.47;;;25.35;100.00
11444;BME280;5778;47.856;12.154;2022-10-16T11:33:27;96615.78;;;25.19;100.00
11444;BME280;5778;47.856;12.154;2022-10-16T11:36:05;96624.16;;;25.14;100.00
11444;BME280;5778;47.856;12.154;2022-10-16T11:38:38;96619.94;;;24.51;100.00
11444;BME280;5778;47.856;12.154;2022-10-16T11:41:14;96624.69;;;24.63;100.00
11444;BME280;5778;47.856;12.154;2022-10-16T11:43:46;96616.16;;;24.85;100.00
11444;BME280;5778;47.856;12.154;2022-10-16T11:46:24;96616.16;;;24.85;100.00
11444;BME280;5778;47.856;12.154;2022-10-16T11:49:00;96624.59;;;25.16;100.00
11444;BME280;5778;47.856;12.154;2022-10-16T11:51:39;96619.03;;;25.00;99.72
11444;BME280;5778;47.856;12.154;2022-10-16T11:54:16;96614.81;;;24.91;100.00
11444;BME280;5778;47.856;12.154;2022-10-16T12:00:09;96598.56;;;25.87;100.00
11444;BME280;5778;47.856;12.154;2022-10-16T12:02:50;96602.53;;;25.89;100.00
11444;BME280;5778;47.856;12.154;2022-10-16T12:05:27;96609.34;;;26.19;100.00
11444;BME280;5778;47.856;12.154;2022-10-16T12:08:09;96614.13;;;26.62;96.75
11444;BME280;5778;47.856;12.154;2022-10-16T12:10:38;96606.53;;;26.83;91.18
11444;BME280;5778;47.856;12.154;2022-10-16T12:13:29;96607.38;;;26.99;96.02
11444;BME280;5778;47.856;12.154;2022-10-16T12:16:26;96606.09;;;26.81;91.86
11444;BME280;5778;47.856;12.154;2022-10-16T12:19:10;96600.19;;;27.22;90.87
11444;BME280;5778;47.856;12.154;2022-10-16T12:21:45;96601.72;;;27.35;74.76
11444;BME280;5778;47.856;12.154;2022-10-16T12:24:21;96599.16;;;27.73;87.68
11444;BME280;5778;47.856;12.154;2022-10-16T12:26:52;96594.59;;;27.46;68.48
11444;BME280;5778;47.856;12.154;2022-10-16T12:29:25;96596.94;;;27.63;83.04
11444;BME280;5778;47.856;12.154;2022-10-16T12:31:55;96597.13;;;27.54;92.21
11444;BME280;5778;47.856;12.154;2022-10-16T12:34:27;96601.28;;;28.14;77.09
11444;BME280;5778;47.856;12.154;2022-10-16T12:37:09;96596.03;;;28.40;84.14
11444;BME280;5778;47.856;12.154;2022-10-16T12:39:37;96597.75;;;28.67;75.86
11444;BME280;5778;47.856;12.154;2022-10-16T12:42:17;96593.13;;;28.90;68.29
11444;BME280;5778;47.856;12.154;2022-10-16T12:44:45;96595.94;;;28.93;53.48
11444;BME280;5778;47.856;12.154;2022-10-16T12:47:20;96597.16;;;29.15;50.34
11444;BME280;5778;47.856;12.154;2022-10-16T12:49:49;96592.56;;;29.00;51.42
11444;BME280;5778;47.856;12.154;2022-10-16T12:52:27;96599.66;;;29.23;46.75
11444;BME280;5778;47.856;12.154;2022-10-16T12:54:56;96596.59;;;29.06;44.90
11444;BME280;5778;47.856;12.154;2022-10-16T12:57:39;96593.19;;;29.35;41.59
11444;BME280;5778;47.856;12.154;2022-10-16T13:00:18;96596.13;;;29.45;45.04
11444;BME280;5778;47.856;12.154;2022-10-16T13:03:20;96594.81;;;27.72;37.61
11444;BME280;5778;47.856;12.154;2022-10-16T13:06:06;96597.75;;;27.32;39.04
11444;BME280;5778;47.856;12.154;2022-10-16T13:08:54;96598.00;;;27.74;39.84
11444;BME280;5778;47.856;12.154;2022-10-16T13:11:41;96603.47;;;28.24;38.67
11444;BME280;5778;47.856;12.154;2022-10-16T13:14:24;96598.63;;;27.83;39.32
11444;BME280;5778;47.856;12.154;2022-10-16T13:17:03;96600.91;;;27.50;39.00
11444;BME280;5778;47.856;12.154;2022-10-16T13:19:38;96606.81;;;27.67;40.21
11444;BME280;5778;47.856;12.154;2022-10-16T13:22:29;96601.16;;;28.26;41.88
11444;BME280;5778;47.856;12.154;2022-10-16T13:25:15;96607.41;;;28.61;42.25
11444;BME280;5778;47.856;12.154;2022-10-16T13:27:54;96606.53;;;28.95;45.32
11444;BME280;5778;47.856;12.154;2022-10-16T13:30:24;96611.41;;;29.24;45.56
11444;BME280;5778;47.856;12.154;2022-10-16T13:32:59;96605.69;;;27.84;40.09
11444;BME280;5778;47.856;12.154;2022-10-16T13:35:28;96609.63;;;28.21;39.46
11444;BME280;5778;47.856;12.154;2022-10-16T13:38:17;96610.31;;;28.87;40.34
11444;BME280;5778;47.856;12.154;2022-10-16T13:40:51;96611.88;;;29.07;35.83
11444;BME280;5778;47.856;12.154;2022-10-16T13:43:22;96610.13;;;29.18;39.39
11444;BME280;5778;47.856;12.154;2022-10-16T13:46:24;96613.63;;;29.60;38.80
11444;BME280;5778;47.856;12.154;2022-10-16T13:48:57;96610.09;;;30.08;40.32
11444;BME280;5778;47.856;12.154;2022-10-16T13:51:37;96607.88;;;30.17;36.75
11444;BME280;5778;47.856;12.154;2022-10-16T13:54:09;96608.81;;;30.28;37.56
11444;BME280;5778;47.856;12.154;2022-10-16T13:56:39;96611.06;;;30.19;40.97
11444;BME280;5778;47.856;12.154;2022-10-16T13:59:22;96612.09;;;30.37;41.42
11444;BME280;5778;47.856;12.154;2022-10-16T14:01:52;96613.09;;;30.55;40.85
11444;BME280;5778;47.856;12.154;2022-10-16T14:04:21;96609.91;;;30.49;41.44
11444;BME280;5778;47.856;12.154;2022-10-16T14:06:50;96608.56;;;30.66;42.02